createdAt,value
2022-12-15T00:00:44.815Z,33.42
2022-12-15T00:03:18.627Z,34.22
2022-12-15T00:05:51.844Z,33.64
2022-12-15T00:08:25.521Z,33.58
2022-12-15T00:11:01.906Z,33.23
2022-12-15T00:23:52.532Z,35.97
2022-12-15T00:26:32.518Z,36.45
2022-12-15T00:29:06.204Z,37.29
2022-12-15T00:31:40.626Z,37.11
2022-12-15T00:34:13.773Z,37.20
2022-12-15T00:36:49.891Z,36.61
2022-12-15T00:50:02.566Z,34.76
2022-12-15T00:52:35.916Z,33.20
2022-12-15T00:55:10.493Z,33.26
2022-12-15T00:57:52.984Z,34.06
2022-12-15T01:00:33.526Z,34.04
2022-12-15T01:17:10.486Z,39.03
2022-12-15T01:19:50.500Z,38.42
2022-12-15T01:22:23.782Z,38.27
2022-12-15T01:24:57.520Z,37.04
2022-12-15T01:27:30.848Z,37.62
2022-12-15T01:30:04.484Z,39.30
2022-12-15T01:43:21.537Z,38.70
2022-12-15T01:46:01.256Z,39.01
2022-12-15T01:48:48.499Z,38.03
2022-12-15T01:51:32.281Z,38.64
2022-12-15T01:54:20.482Z,37.96
2022-12-15T01:56:59.556Z,37.34
2022-12-15T02:09:48.479Z,35.42
2022-12-15T02:12:45.501Z,35.82
2022-12-15T02:15:27.683Z,33.27
2022-12-15T02:18:22.509Z,33.68
2022-12-15T02:21:09.320Z,33.63
2022-12-15T02:24:40.497Z,33.34
2022-12-15T02:38:00.058Z,32.81
2022-12-15T02:40:34.744Z,32.69
2022-12-15T02:43:12.496Z,32.61
2022-12-15T02:45:59.601Z,32.47
2022-12-15T02:48:57.516Z,33.19
2022-12-15T02:51:47.849Z,32.97
2022-12-15T03:04:44.505Z,32.58
2022-12-15T03:07:24.468Z,31.12
2022-12-15T03:10:04.393Z,29.97
2022-12-15T03:12:44.531Z,28.45
2022-12-15T03:15:18.933Z,30.31
2022-12-15T03:31:34.563Z,28.82
2022-12-15T03:34:07.744Z,28.52
2022-12-15T03:36:41.484Z,28.51
2022-12-15T03:39:20.027Z,29.07
2022-12-15T03:42:02.076Z,29.90
2022-12-15T03:44:35.708Z,29.77
2022-12-15T03:47:11.475Z,29.44
2022-12-15T03:56:56.440Z,29.81
2022-12-15T03:59:36.477Z,30.69
2022-12-15T04:02:12.247Z,29.54
2022-12-15T04:04:45.468Z,29.71
2022-12-15T04:07:18.832Z,29.92
2022-12-15T04:09:52.490Z,29.19
2022-12-15T04:12:25.781Z,29.39
2022-12-15T04:25:19.434Z,29.02
2022-12-15T04:28:01.720Z,28.76
2022-12-15T04:30:36.400Z,29.30
2022-12-15T04:33:17.498Z,28.57
2022-12-15T04:35:52.350Z,28.33
2022-12-15T04:52:07.468Z,27.88
2022-12-15T04:54:40.720Z,27.66
2022-12-15T04:57:14.453Z,27.76
2022-12-15T04:59:47.804Z,28.01
2022-12-15T05:02:21.648Z,27.77
2022-12-15T05:04:54.700Z,27.36
2022-12-15T05:07:30.485Z,27.46
2022-12-15T05:17:15.489Z,27.22
2022-12-15T05:19:55.453Z,28.06
2022-12-15T05:22:30.649Z,27.24
2022-12-15T05:25:03.451Z,27.61
2022-12-15T05:27:36.720Z,26.84
2022-12-15T05:30:11.443Z,27.56
2022-12-15T05:43:38.464Z,27.11
2022-12-15T05:46:12.038Z,26.44
2022-12-15T05:48:46.527Z,25.98
2022-12-15T05:51:19.840Z,26.33
2022-12-15T05:53:58.447Z,27.53
2022-12-15T05:56:31.761Z,27.85
2022-12-15T06:12:46.442Z,27.04
2022-12-15T06:15:19.703Z,27.84
2022-12-15T06:17:53.480Z,27.59
2022-12-15T06:20:26.717Z,26.41
2022-12-15T06:23:00.414Z,26.67
2022-12-15T06:25:33.832Z,27.65
2022-12-15T06:38:24.480Z,26.63
2022-12-15T06:41:06.432Z,26.35
2022-12-15T06:43:40.304Z,26.70
2022-12-15T06:46:14.477Z,25.72
2022-12-15T06:48:48.406Z,25.84
2022-12-15T06:51:24.204Z,26.33
2022-12-15T07:04:38.422Z,25.60
2022-12-15T07:07:11.805Z,25.81
2022-12-15T07:09:45.444Z,26.43
2022-12-15T07:12:18.857Z,26.84
2022-12-15T07:14:53.651Z,25.68
2022-12-15T07:17:27.980Z,26.03
2022-12-15T07:30:38.981Z,26.24
2022-12-15T07:33:19.421Z,26.14
2022-12-15T07:35:53.512Z,25.38
2022-12-15T07:38:27.435Z,25.46
2022-12-15T07:41:03.084Z,26.10
2022-12-15T07:43:37.141Z,26.75
2022-12-15T07:46:13.618Z,26.18
2022-12-15T07:59:01.381Z,28.81
2022-12-15T08:01:43.656Z,28.80
2022-12-15T08:04:17.124Z,29.21
2022-12-15T08:06:50.421Z,29.34
2022-12-15T08:09:24.312Z,30.62
2022-12-15T08:11:58.400Z,30.76
2022-12-15T08:25:11.433Z,29.24
2022-12-15T08:27:44.664Z,30.31
2022-12-15T08:30:19.404Z,29.25
2022-12-15T08:32:52.774Z,30.10
2022-12-15T08:35:55.115Z,29.08
2022-12-15T08:52:23.368Z,30.22
2022-12-15T08:55:03.509Z,28.89
2022-12-15T08:57:37.188Z,29.78
2022-12-15T09:00:11.650Z,28.35
2022-12-15T09:02:44.728Z,28.42
2022-12-15T09:05:18.404Z,27.72
2022-12-15T09:18:30.460Z,26.30
2022-12-15T09:21:06.737Z,25.94
2022-12-15T09:23:41.388Z,24.81
2022-12-15T09:26:15.289Z,24.55
2022-12-15T09:28:50.051Z,24.88
2022-12-15T09:31:36.239Z,24.95
2022-12-15T09:44:36.358Z,23.17
2022-12-15T09:47:27.412Z,23.63
2022-12-15T09:50:05.263Z,23.13
2022-12-15T09:52:54.403Z,23.09
2022-12-15T09:55:30.941Z,22.49
2022-12-15T10:12:01.427Z,22.03
2022-12-15T10:14:41.816Z,22.63
2022-12-15T10:17:29.425Z,22.87
2022-12-15T10:20:16.010Z,22.32
2022-12-15T10:23:11.452Z,22.64
2022-12-15T10:25:51.382Z,23.48
2022-12-15T10:39:06.359Z,21.61
2022-12-15T10:41:46.374Z,21.01
2022-12-15T10:44:31.913Z,20.40
2022-12-15T10:47:17.371Z,20.68
2022-12-15T10:49:51.262Z,20.53
2022-12-15T10:52:32.413Z,22.31
2022-12-15T11:05:44.377Z,21.43
2022-12-15T11:08:19.567Z,22.96
2022-12-15T11:10:59.458Z,22.44
2022-12-15T11:13:35.023Z,23.53
2022-12-15T11:16:21.393Z,23.60
2022-12-15T11:33:03.369Z,27.47
2022-12-15T11:36:06.390Z,26.75
2022-12-15T11:38:49.775Z,27.60
2022-12-15T11:41:45.357Z,27.11
2022-12-15T11:44:27.379Z,27.13
2022-12-15T11:47:25.358Z,28.69
2022-12-15T12:00:44.361Z,30.97
2022-12-15T12:03:33.479Z,28.70
2022-12-15T12:06:32.372Z,28.70
2022-12-15T12:09:28.714Z,28.82
2022-12-15T12:12:23.427Z,27.99
2022-12-15T12:25:41.385Z,28.37
2022-12-15T12:28:32.526Z,28.11
2022-12-15T12:31:28.381Z,26.18
2022-12-15T12:34:11.753Z,26.42
2022-12-15T12:36:53.374Z,25.89
2022-12-15T12:39:27.664Z,26.84
2022-12-15T12:42:15.365Z,26.51
2022-12-15T12:51:48.654Z,26.83
2022-12-15T12:54:47.365Z,25.46
2022-12-15T12:57:38.499Z,25.74
2022-12-15T13:00:26.418Z,25.66
2022-12-15T13:03:17.411Z,24.57
2022-12-15T13:05:57.338Z,25.62
2022-12-15T13:19:12.344Z,24.50
2022-12-15T13:21:54.086Z,24.51
2022-12-15T13:24:40.337Z,24.12
2022-12-15T13:27:15.430Z,24.12
2022-12-15T13:30:06.414Z,24.76
2022-12-15T13:32:42.734Z,24.39
2022-12-15T13:45:54.360Z,23.57
2022-12-15T13:48:41.434Z,23.09
2022-12-15T13:51:26.985Z,23.89
2022-12-15T13:54:18.391Z,22.29
2022-12-15T13:57:02.357Z,22.79
2022-12-15T13:59:51.342Z,22.17
2022-12-15T14:02:29.339Z,22.53
2022-12-15T14:15:17.953Z,23.19
2022-12-15T14:18:00.899Z,22.90
2022-12-15T14:20:40.240Z,23.83
2022-12-15T14:23:25.329Z,23.62
2022-12-15T14:26:06.004Z,23.54
2022-12-15T14:39:07.373Z,23.85
2022-12-15T14:41:53.320Z,24.18
2022-12-15T14:44:38.331Z,24.51
2022-12-15T14:47:30.352Z,25.42
2022-12-15T14:50:09.452Z,25.09
2022-12-15T14:52:51.356Z,25.65
2022-12-15T15:06:10.328Z,31.06
2022-12-15T15:08:47.652Z,31.27
2022-12-15T15:11:35.344Z,32.65
2022-12-15T15:14:15.876Z,31.53
2022-12-15T15:17:11.359Z,30.78
2022-12-15T15:19:51.436Z,30.98
2022-12-15T15:22:49.651Z,29.62
2022-12-15T15:32:34.311Z,31.08
2022-12-15T15:35:14.304Z,30.04
2022-12-15T15:37:51.556Z,30.57
2022-12-15T15:40:31.335Z,30.85
2022-12-15T15:43:10.776Z,29.21
2022-12-15T15:45:53.431Z,29.85
2022-12-15T15:59:15.341Z,27.77
2022-12-15T16:01:53.595Z,29.26
2022-12-15T16:04:33.330Z,28.58
2022-12-15T16:07:18.819Z,27.48
2022-12-15T16:10:00.331Z,26.72
2022-12-15T16:12:43.693Z,26.53
2022-12-15T16:25:59.281Z,25.38
2022-12-15T16:28:39.403Z,23.85
2022-12-15T16:31:27.428Z,22.78
2022-12-15T16:34:07.344Z,24.57
2022-12-15T16:36:40.989Z,24.49
2022-12-15T16:39:32.113Z,23.71
2022-12-15T16:42:11.728Z,24.31
2022-12-15T16:52:26.307Z,25.12
2022-12-15T16:54:59.601Z,25.35
2022-12-15T16:57:37.325Z,24.76
2022-12-15T17:00:18.553Z,24.35
2022-12-15T17:02:58.419Z,25.35
2022-12-15T17:05:35.386Z,23.79
2022-12-15T17:19:20.713Z,23.01
2022-12-15T17:22:01.304Z,22.81
2022-12-15T17:24:34.613Z,24.09
2022-12-15T17:27:08.550Z,23.92
2022-12-15T17:29:42.784Z,24.62
2022-12-15T17:32:19.306Z,25.21
2022-12-15T17:45:58.313Z,26.11
2022-12-15T17:48:31.612Z,26.83
2022-12-15T17:51:05.297Z,24.78
2022-12-15T17:53:45.982Z,25.93
2022-12-15T17:56:23.301Z,26.07
2022-12-15T17:58:56.548Z,24.86
2022-12-15T18:01:32.465Z,25.86
2022-12-15T18:14:42.320Z,24.46
2022-12-15T18:17:17.525Z,24.11
2022-12-15T18:19:51.354Z,24.57
2022-12-15T18:22:24.718Z,24.82
2022-12-15T18:25:00.271Z,23.92
2022-12-15T18:27:33.669Z,23.95
2022-12-15T18:40:31.269Z,23.07
2022-12-15T18:43:18.300Z,23.15
2022-12-15T18:45:52.260Z,23.66
2022-12-15T18:48:28.300Z,26.09
2022-12-15T18:51:12.509Z,26.21
2022-12-15T19:07:34.290Z,29.92
2022-12-15T19:10:14.010Z,31.49
2022-12-15T19:12:58.592Z,30.37
2022-12-15T19:15:32.511Z,31.23
2022-12-15T19:18:05.301Z,31.46
2022-12-15T19:20:38.886Z,31.84
2022-12-15T19:32:59.265Z,30.79
2022-12-15T19:35:39.849Z,30.56
2022-12-15T19:38:23.292Z,31.26
2022-12-15T19:41:05.269Z,32.31
2022-12-15T19:43:38.496Z,32.87
2022-12-15T19:46:12.379Z,33.04
2022-12-15T19:59:44.283Z,33.08
2022-12-15T20:02:20.382Z,31.62
2022-12-15T20:04:55.269Z,32.68
2022-12-15T20:07:30.266Z,31.68
2022-12-15T20:10:03.285Z,32.21
2022-12-15T20:12:36.711Z,31.67
2022-12-15T20:28:52.274Z,32.76
2022-12-15T20:31:26.388Z,32.53
2022-12-15T20:34:00.253Z,31.98
2022-12-15T20:36:33.564Z,33.05
2022-12-15T20:39:08.349Z,33.64
2022-12-15T20:41:41.578Z,32.96
2022-12-15T20:54:32.244Z,32.65
2022-12-15T20:57:12.274Z,34.09
2022-12-15T20:59:46.364Z,35.13
2022-12-15T21:02:26.494Z,36.08
2022-12-15T21:04:59.749Z,37.48
2022-12-15T21:07:33.257Z,37.30
2022-12-15T21:20:45.241Z,38.34
2022-12-15T21:23:23.452Z,37.76
2022-12-15T21:26:05.248Z,37.07
2022-12-15T21:28:38.505Z,36.99
2022-12-15T21:31:12.269Z,37.47
2022-12-15T21:47:49.233Z,37.13
2022-12-15T21:50:29.299Z,37.14
2022-12-15T21:53:05.197Z,37.08
2022-12-15T21:55:38.242Z,36.20
2022-12-15T21:58:19.661Z,34.84
2022-12-15T22:00:59.327Z,34.66
2022-12-15T22:14:29.273Z,36.02
2022-12-15T22:17:16.287Z,33.69
2022-12-15T22:19:56.220Z,35.76
2022-12-15T22:22:31.973Z,35.39
2022-12-15T22:25:05.228Z,34.37
2022-12-15T22:27:38.677Z,33.41
2022-12-15T22:40:30.245Z,34.34
2022-12-15T22:43:18.225Z,33.13
2022-12-15T22:45:54.303Z,33.02
2022-12-15T22:48:41.852Z,32.58
2022-12-15T22:51:17.773Z,33.43
2022-12-15T22:53:52.256Z,32.76
2022-12-15T22:56:39.187Z,32.79
2022-12-15T23:06:54.951Z,33.47
2022-12-15T23:09:44.131Z,33.11
2022-12-15T23:12:26.281Z,36.09
2022-12-15T23:14:59.618Z,37.94
2022-12-15T23:17:33.214Z,37.95
2022-12-15T23:20:08.430Z,37.45
2022-12-15T23:22:41.235Z,37.75
2022-12-15T23:35:16.213Z,40.26
2022-12-15T23:37:49.494Z,38.10
2022-12-15T23:40:24.239Z,38.90
2022-12-15T23:42:57.541Z,39.62
2022-12-15T23:45:31.240Z,38.41
2022-12-15T23:48:05.091Z,40.00
